Time;durP1;ratioP1;P1;durP2;ratioP2;P2;SDS_P1;SDS_P2;PMS_P1;PMS_P2;Temp;Humidity;BMP_temperature;BMP_pressure;BME280_temperature;BME280_humidity;BME280_pressure;Samples;Min_cycle;Max_cycle;Signal;HPM_P1;HPM_P2
2023/09/25 00:01:00;;;;;;;3.58;1.92;;;;;;;;;;5070789;28;20056;-61
2023/09/25 00:03:27;;;;;;;3.80;1.95;;;;;;;;;;5083247;28;20680;-61
2023/09/25 00:05:54;;;;;;;2.55;1.63;;;;;;;;;;5082733;28;20063;-60
2023/09/25 00:08:21;;;;;;;3.88;2.00;;;;;;;;;;5084010;28;20052;-60
2023/09/25 00:10:47;;;;;;;2.58;1.80;;;;;;;;;;5081685;28;20052;-60
2023/09/25 00:13:13;;;;;;;2.67;1.58;;;;;;;;;;5082318;28;20049;-61
2023/09/25 00:15:44;;;;;;;4.53;1.88;;;;;;;;;;5078681;28;20111;-60
2023/09/25 00:18:11;;;;;;;2.03;1.70;;;;;;;;;;5063170;28;20053;-60
2023/09/25 00:20:38;;;;;;;2.33;1.60;;;;;;;;;;5062712;28;20053;-61
2023/09/25 00:23:05;;;;;;;3.08;1.90;;;;;;;;;;5063778;28;20499;-61
2023/09/25 00:25:32;;;;;;;2.90;1.85;;;;;;;;;;5063113;28;20057;-61
2023/09/25 00:27:59;;;;;;;3.67;1.92;;;;;;;;;;5063094;28;20107;-60
2023/09/25 00:30:26;;;;;;;2.72;2.08;;;;;;;;;;5061715;28;20604;-60
2023/09/25 00:32:52;;;;;;;2.00;1.80;;;;;;;;;;5062584;28;20059;-61
2023/09/25 00:35:20;;;;;;;3.15;2.00;;;;;;;;;;5062142;28;20114;-60
2023/09/25 00:37:47;;;;;;;5.07;2.10;;;;;;;;;;5062611;28;20057;-61
2023/09/25 00:40:13;;;;;;;2.53;2.00;;;;;;;;;;5042733;28;20108;-60
2023/09/25 00:42:41;;;;;;;4.13;2.42;;;;;;;;;;5043149;28;20065;-61
2023/09/25 00:45:09;;;;;;;2.45;1.73;;;;;;;;;;5042950;28;20085;-60
2023/09/25 00:47:36;;;;;;;4.57;2.03;;;;;;;;;;5042006;28;20127;-60
2023/09/25 00:50:04;;;;;;;2.10;1.40;;;;;;;;;;5046174;28;20423;-59
2023/09/25 00:52:31;;;;;;;3.22;1.83;;;;;;;;;;5051102;28;20446;-61
2023/09/25 00:54:59;;;;;;;2.08;1.63;;;;;;;;;;5062689;28;20053;-60
2023/09/25 00:57:26;;;;;;;4.57;1.73;;;;;;;;;;5060213;28;20053;-60
2023/09/25 00:59:52;;;;;;;4.40;2.28;;;;;;;;;;5062002;28;20582;-59
2023/09/25 01:02:19;;;;;;;4.05;1.80;;;;;;;;;;5057326;28;20127;-59
2023/09/25 01:04:46;;;;;;;3.80;1.80;;;;;;;;;;5062549;28;20085;-60
2023/09/25 01:07:12;;;;;;;2.88;1.67;;;;;;;;;;5062656;28;20099;-60
2023/09/25 01:09:39;;;;;;;3.22;1.67;;;;;;;;;;5063590;28;20057;-59
2023/09/25 01:12:06;;;;;;;3.42;2.00;;;;;;;;;;5066370;28;20057;-59
2023/09/25 01:14:32;;;;;;;3.25;1.80;;;;;;;;;;5066213;28;20057;-60
2023/09/25 01:16:59;;;;;;;3.55;1.70;;;;;;;;;;5064718;28;20111;-60
2023/09/25 01:19:25;;;;;;;2.65;1.95;;;;;;;;;;5066177;28;20483;-60
2023/09/25 01:21:52;;;;;;;6.00;3.63;;;;;;;;;;5066245;28;20208;-59
2023/09/25 01:24:18;;;;;;;8.05;4.35;;;;;;;;;;5064688;28;20463;-60
2023/09/25 01:26:45;;;;;;;4.35;2.47;;;;;;;;;;5066051;28;20061;-60
2023/09/25 01:29:12;;;;;;;4.28;2.25;;;;;;;;;;5065723;28;20049;-60
2023/09/25 01:31:39;;;;;;;2.97;1.95;;;;;;;;;;5064617;28;20053;-60
2023/09/25 01:34:05;;;;;;;3.20;2.00;;;;;;;;;;5065902;28;20148;-60
2023/09/25 01:36:32;;;;;;;4.78;2.05;;;;;;;;;;5066068;28;20060;-60
2023/09/25 01:38:59;;;;;;;3.17;2.05;;;;;;;;;;5064942;28;20495;-60
2023/09/25 01:41:25;;;;;;;3.53;1.80;;;;;;;;;;5065530;28;20589;-60
2023/09/25 01:43:52;;;;;;;2.40;1.70;;;;;;;;;;5065245;28;20045;-60
2023/09/25 01:46:18;;;;;;;6.03;2.40;;;;;;;;;;5065020;28;20057;-59
2023/09/25 01:48:44;;;;;;;3.38;2.00;;;;;;;;;;5065156;28;20079;-60
2023/09/25 01:51:11;;;;;;;2.63;1.85;;;;;;;;;;5065583;28;20520;-60
2023/09/25 01:53:38;;;;;;;2.40;2.10;;;;;;;;;;5064694;28;20057;-59
2023/09/25 01:56:11;;;;;;;3.58;2.03;;;;;;;;;;5065839;28;20053;-60
2023/09/25 01:58:38;;;;;;;3.17;1.92;;;;;;;;;;5064053;28;20053;-60
2023/09/25 02:01:05;;;;;;;3.13;1.88;;;;;;;;;;5063954;28;20064;-57
2023/09/25 02:03:31;;;;;;;4.30;2.03;;;;;;;;;;5064710;28;20059;-58
2023/09/25 02:05:58;;;;;;;3.47;2.00;;;;;;;;;;5065663;28;20067;-59
2023/09/25 02:08:24;;;;;;;2.25;1.63;;;;;;;;;;5065106;28;20080;-59
2023/09/25 02:10:51;;;;;;;5.07;1.92;;;;;;;;;;5065440;28;20045;-59
2023/09/25 02:13:17;;;;;;;2.45;1.95;;;;;;;;;;5055476;28;20504;-59
2023/09/25 02:15:44;;;;;;;2.65;1.90;;;;;;;;;;5049434;28;20053;-59
2023/09/25 02:18:10;;;;;;;3.92;1.83;;;;;;;;;;5065144;28;20061;-58
2023/09/25 02:20:36;;;;;;;3.60;2.30;;;;;;;;;;5069008;28;20171;-58
2023/09/25 02:23:03;;;;;;;2.00;1.80;;;;;;;;;;5085687;28;20091;-59
2023/09/25 02:25:30;;;;;;;4.18;2.13;;;;;;;;;;5065880;28;20064;-58
2023/09/25 02:27:56;;;;;;;3.22;1.77;;;;;;;;;;5064547;28;20448;-58
2023/09/25 02:30:23;;;;;;;3.05;2.05;;;;;;;;;;5063781;28;20374;-59
2023/09/25 02:32:49;;;;;;;4.57;2.55;;;;;;;;;;5063924;28;20064;-58
2023/09/25 02:35:15;;;;;;;2.75;2.10;;;;;;;;;;5062378;28;20049;-58
2023/09/25 02:37:44;;;;;;;2.50;1.90;;;;;;;;;;5043825;28;20053;-57
2023/09/25 02:40:14;;;;;;;3.58;2.35;;;;;;;;;;5044378;28;20089;-59
2023/09/25 02:42:42;;;;;;;3.42;2.30;;;;;;;;;;5044456;28;20133;-59
2023/09/25 02:45:08;;;;;;;5.15;2.05;;;;;;;;;;5047626;28;20057;-58
2023/09/25 02:47:35;;;;;;;4.20;2.08;;;;;;;;;;5064732;28;20526;-58
2023/09/25 02:50:01;;;;;;;3.75;1.85;;;;;;;;;;5064876;28;20049;-59
2023/09/25 02:52:28;;;;;;;2.80;1.77;;;;;;;;;;5064839;28;20077;-58
2023/09/25 02:54:54;;;;;;;2.47;1.88;;;;;;;;;;5064211;28;20584;-59
2023/09/25 02:57:20;;;;;;;3.50;2.10;;;;;;;;;;5061912;28;20427;-57
2023/09/25 02:59:47;;;;;;;2.85;1.80;;;;;;;;;;5043695;28;20558;-58
2023/09/25 03:02:13;;;;;;;4.30;2.03;;;;;;;;;;5049089;28;20597;-59
2023/09/25 03:04:40;;;;;;;4.57;1.98;;;;;;;;;;5064265;28;20053;-59
2023/09/25 03:07:06;;;;;;;2.60;1.85;;;;;;;;;;5064470;28;20154;-58
2023/09/25 03:09:33;;;;;;;4.53;1.58;;;;;;;;;;5064663;28;20520;-60
2023/09/25 03:12:00;;;;;;;3.70;2.10;;;;;;;;;;5063511;28;20138;-59
2023/09/25 03:14:27;;;;;;;3.33;2.22;;;;;;;;;;5064176;28;20675;-59
2023/09/25 03:16:54;;;;;;;3.25;2.05;;;;;;;;;;5063671;28;20057;-59
2023/09/25 03:19:20;;;;;;;3.60;2.20;;;;;;;;;;5061768;28;20113;-59
2023/09/25 03:21:46;;;;;;;7.18;2.15;;;;;;;;;;5043779;28;20119;-59
2023/09/25 03:24:13;;;;;;;4.47;2.00;;;;;;;;;;5050906;28;20052;-59
2023/09/25 03:26:39;;;;;;;3.10;2.00;;;;;;;;;;5063482;28;20063;-59
2023/09/25 03:29:06;;;;;;;3.70;2.25;;;;;;;;;;5064047;28;20640;-58
2023/09/25 03:31:33;;;;;;;5.50;2.00;;;;;;;;;;5062936;28;20053;-58
2023/09/25 03:34:00;;;;;;;3.15;1.92;;;;;;;;;;5063154;28;20508;-59
2023/09/25 03:36:27;;;;;;;2.75;1.88;;;;;;;;;;5062518;28;20045;-59
2023/09/25 03:38:54;;;;;;;3.58;2.10;;;;;;;;;;5063649;28;20136;-59
2023/09/25 03:41:21;;;;;;;2.50;1.83;;;;;;;;;;5062228;28;20142;-59
2023/09/25 03:43:47;;;;;;;2.30;1.95;;;;;;;;;;5053084;28;20546;-59
2023/09/25 03:46:13;;;;;;;3.35;2.10;;;;;;;;;;5044000;28;20152;-59
2023/09/25 03:48:40;;;;;;;2.97;2.30;;;;;;;;;;5043719;28;20046;-58
2023/09/25 03:51:06;;;;;;;5.80;2.00;;;;;;;;;;5051949;28;20063;-59
2023/09/25 03:53:33;;;;;;;2.65;1.73;;;;;;;;;;5052531;28;20057;-58
2023/09/25 03:55:59;;;;;;;3.17;2.05;;;;;;;;;;5063061;28;20099;-58
2023/09/25 03:58:25;;;;;;;4.60;2.30;;;;;;;;;;5063399;28;20103;-58
2023/09/25 04:00:52;;;;;;;4.30;2.10;;;;;;;;;;5063042;28;20073;-58
2023/09/25 04:03:19;;;;;;;4.22;2.13;;;;;;;;;;5063233;28;20053;-59
2023/09/25 04:05:46;;;;;;;4.00;2.10;;;;;;;;;;5059847;28;20137;-58
2023/09/25 04:08:12;;;;;;;2.95;1.60;;;;;;;;;;5043243;28;20557;-58
2023/09/25 04:10:39;;;;;;;4.35;2.17;;;;;;;;;;5043001;28;20049;-59
2023/09/25 04:13:07;;;;;;;3.70;2.10;;;;;;;;;;5042020;28;20555;-58
2023/09/25 04:15:34;;;;;;;2.75;2.08;;;;;;;;;;5043572;28;20468;-59
2023/09/25 04:18:01;;;;;;;3.72;2.00;;;;;;;;;;5042698;28;20053;-58
2023/09/25 04:20:28;;;;;;;3.03;1.92;;;;;;;;;;5043453;28;20528;-59
2023/09/25 04:22:57;;;;;;;2.05;1.60;;;;;;;;;;5043347;28;20503;-58
2023/09/25 04:25:24;;;;;;;2.13;1.77;;;;;;;;;;5058324;28;20080;-59
2023/09/25 04:27:53;;;;;;;2.83;2.03;;;;;;;;;;5059424;28;20083;-59
2023/09/25 04:30:20;;;;;;;2.90;1.92;;;;;;;;;;5062789;28;20110;-58
2023/09/25 04:32:47;;;;;;;3.75;1.92;;;;;;;;;;5062594;28;20114;-59
2023/09/25 04:35:15;;;;;;;2.08;1.73;;;;;;;;;;5062737;28;20045;-58
2023/09/25 04:37:42;;;;;;;3.45;1.83;;;;;;;;;;5058644;28;20522;-59
2023/09/25 04:42:47;;;;;;;4.03;1.90;;;;;;;;;;5061514;28;20064;-59
2023/09/25 04:45:16;;;;;;;2.67;1.95;;;;;;;;;;5059926;28;20057;-59
2023/09/25 04:47:42;;;;;;;3.00;2.10;;;;;;;;;;5062753;28;20144;-59
2023/09/25 04:50:09;;;;;;;6.43;2.05;;;;;;;;;;5062645;28;20052;-59
2023/09/25 04:52:38;;;;;;;3.10;2.22;;;;;;;;;;5062621;28;20127;-61
2023/09/25 04:55:05;;;;;;;2.60;2.10;;;;;;;;;;5062427;28;20103;-59
2023/09/25 04:57:32;;;;;;;3.03;1.88;;;;;;;;;;5058042;28;20111;-59
2023/09/25 04:59:59;;;;;;;4.35;2.20;;;;;;;;;;5062406;28;20508;-60
2023/09/25 05:02:25;;;;;;;3.15;1.95;;;;;;;;;;5063517;28;20049;-60
2023/09/25 05:04:51;;;;;;;4.10;2.25;;;;;;;;;;5062178;28;20566;-59
2023/09/25 05:07:19;;;;;;;4.93;2.50;;;;;;;;;;5062784;28;20054;-60
2023/09/25 05:09:45;;;;;;;2.65;2.20;;;;;;;;;;5062094;28;20053;-59
2023/09/25 05:12:12;;;;;;;5.60;2.03;;;;;;;;;;5062219;28;20103;-59
2023/09/25 05:14:39;;;;;;;6.40;1.90;;;;;;;;;;5061966;28;20049;-59
2023/09/25 05:17:06;;;;;;;3.83;1.70;;;;;;;;;;5060751;28;20057;-57
2023/09/25 05:19:33;;;;;;;3.45;1.85;;;;;;;;;;5063045;28;20516;-59
2023/09/25 05:21:59;;;;;;;5.22;1.90;;;;;;;;;;5062284;28;20056;-59
2023/09/25 05:24:26;;;;;;;7.13;2.08;;;;;;;;;;5061887;28;20136;-59
2023/09/25 05:26:52;;;;;;;4.10;1.70;;;;;;;;;;5062419;28;20140;-59
2023/09/25 05:29:19;;;;;;;5.60;2.47;;;;;;;;;;5060817;28;20549;-59
2023/09/25 05:31:46;;;;;;;3.80;1.65;;;;;;;;;;5050879;28;21116;-59
2023/09/25 05:34:12;;;;;;;2.38;2.08;;;;;;;;;;5058988;28;20053;-59
2023/09/25 05:36:39;;;;;;;5.35;2.47;;;;;;;;;;5055892;28;20084;-59
2023/09/25 05:39:08;;;;;;;4.18;2.08;;;;;;;;;;5066254;28;20053;-56
2023/09/25 05:41:35;;;;;;;2.65;1.90;;;;;;;;;;5072360;28;20053;-60
2023/09/25 05:44:01;;;;;;;3.15;2.20;;;;;;;;;;5059006;28;20059;-59
2023/09/25 05:46:28;;;;;;;3.38;2.03;;;;;;;;;;5061399;28;20550;-59
2023/09/25 05:48:57;;;;;;;5.50;2.30;;;;;;;;;;5060888;28;20053;-59
2023/09/25 05:51:24;;;;;;;4.15;2.13;;;;;;;;;;5060958;28;20511;-60
2023/09/25 05:53:51;;;;;;;2.63;1.70;;;;;;;;;;5059697;28;20080;-60
2023/09/25 05:56:17;;;;;;;3.90;2.28;;;;;;;;;;5058377;28;20060;-59
2023/09/25 05:58:44;;;;;;;3.58;1.90;;;;;;;;;;5063851;28;20106;-59
2023/09/25 06:01:10;;;;;;;3.72;1.60;;;;;;;;;;5064593;28;20081;-59
2023/09/25 06:03:37;;;;;;;2.28;1.90;;;;;;;;;;5063485;28;20061;-59
2023/09/25 06:06:05;;;;;;;2.67;1.83;;;;;;;;;;5065687;28;20052;-58
2023/09/25 06:08:33;;;;;;;2.97;2.03;;;;;;;;;;5063803;28;20083;-60
2023/09/25 06:11:01;;;;;;;5.55;2.75;;;;;;;;;;5061148;28;20076;-60
2023/09/25 06:13:27;;;;;;;3.45;2.10;;;;;;;;;;5063909;28;20523;-60
2023/09/25 06:15:53;;;;;;;2.63;2.20;;;;;;;;;;5064518;28;20428;-60
2023/09/25 06:18:20;;;;;;;3.72;2.13;;;;;;;;;;5064728;28;20201;-59
2023/09/25 06:20:48;;;;;;;2.08;1.88;;;;;;;;;;5063271;28;20051;-59
2023/09/25 06:23:15;;;;;;;3.35;1.90;;;;;;;;;;5064187;28;20140;-59
2023/09/25 06:25:42;;;;;;;5.30;2.03;;;;;;;;;;5064646;28;20058;-59
2023/09/25 06:28:20;;;;;;;4.32;2.20;;;;;;;;;;5063971;28;20053;-59
2023/09/25 06:30:46;;;;;;;10.25;2.67;;;;;;;;;;5064122;28;20056;-59
2023/09/25 06:33:13;;;;;;;4.15;2.03;;;;;;;;;;5063528;28;20060;-58
2023/09/25 06:35:40;;;;;;;4.50;2.13;;;;;;;;;;5062606;28;20053;-59
2023/09/25 06:38:07;;;;;;;2.63;2.20;;;;;;;;;;5063719;28;20143;-58
2023/09/25 06:40:34;;;;;;;3.88;2.20;;;;;;;;;;5063959;28;20048;-61
2023/09/25 06:43:01;;;;;;;3.60;2.28;;;;;;;;;;5064368;28;20053;-59
2023/09/25 06:45:28;;;;;;;5.35;2.28;;;;;;;;;;5057841;28;20080;-60
2023/09/25 06:47:54;;;;;;;4.40;2.38;;;;;;;;;;5062185;28;20061;-58
2023/09/25 06:50:21;;;;;;;4.78;2.13;;;;;;;;;;5063635;28;20056;-60
2023/09/25 06:52:47;;;;;;;3.67;2.30;;;;;;;;;;5062171;28;20081;-59
2023/09/25 06:55:13;;;;;;;5.05;2.38;;;;;;;;;;5064414;28;20055;-57
2023/09/25 06:57:40;;;;;;;6.38;2.20;;;;;;;;;;5063319;28;20049;-57
2023/09/25 07:00:06;;;;;;;3.88;2.08;;;;;;;;;;5071748;28;20049;-58
2023/09/25 07:02:33;;;;;;;3.08;2.10;;;;;;;;;;5064506;28;20088;-60
2023/09/25 07:05:00;;;;;;;3.15;2.75;;;;;;;;;;5063202;28;20496;-60
2023/09/25 07:07:26;;;;;;;2.80;2.20;;;;;;;;;;5062495;28;20585;-60
2023/09/25 07:09:53;;;;;;;3.85;2.00;;;;;;;;;;5063233;28;20499;-59
2023/09/25 07:12:20;;;;;;;5.00;2.15;;;;;;;;;;5062229;28;20262;-58
2023/09/25 07:14:55;;;;;;;6.85;2.20;;;;;;;;;;5061560;28;20522;-60
2023/09/25 07:17:23;;;;;;;4.47;2.30;;;;;;;;;;5063765;28;20499;-60
2023/09/25 07:19:50;;;;;;;5.82;2.45;;;;;;;;;;5062826;28;20104;-59
2023/09/25 07:22:17;;;;;;;5.05;2.85;;;;;;;;;;5049339;28;20455;-59
2023/09/25 07:24:43;;;;;;;5.80;2.60;;;;;;;;;;5058742;28;20056;-59
2023/09/25 07:27:10;;;;;;;4.45;2.88;;;;;;;;;;5048925;28;20570;-58
2023/09/25 07:29:37;;;;;;;3.05;2.40;;;;;;;;;;5061341;28;20053;-58
2023/09/25 07:32:07;;;;;;;4.03;2.53;;;;;;;;;;5061710;28;20522;-59
2023/09/25 07:34:34;;;;;;;2.83;2.15;;;;;;;;;;5057223;28;20045;-60
2023/09/25 07:37:00;;;;;;;4.65;2.60;;;;;;;;;;5054421;28;20431;-59
2023/09/25 07:39:27;;;;;;;3.50;1.90;;;;;;;;;;5061603;28;20061;-58
2023/09/25 07:41:53;;;;;;;3.67;1.80;;;;;;;;;;5062898;28;20053;-59
2023/09/25 07:44:25;;;;;;;3.88;2.13;;;;;;;;;;5061212;28;20147;-58
2023/09/25 07:46:53;;;;;;;5.07;2.10;;;;;;;;;;5057888;28;20055;-59
2023/09/25 07:49:20;;;;;;;5.10;2.70;;;;;;;;;;5060043;28;20061;-59
2023/09/25 07:51:47;;;;;;;4.38;2.45;;;;;;;;;;5061880;28;20049;-59
2023/09/25 07:54:14;;;;;;;4.60;2.13;;;;;;;;;;5045832;28;20054;-59
2023/09/25 07:56:41;;;;;;;5.22;2.33;;;;;;;;;;5056114;28;20595;-59
2023/09/25 07:59:13;;;;;;;4.63;2.00;;;;;;;;;;5045880;28;20114;-60
2023/09/25 08:01:42;;;;;;;3.55;2.00;;;;;;;;;;5061993;28;20057;-59
2023/09/25 08:04:08;;;;;;;9.57;2.30;;;;;;;;;;5061804;28;20079;-59
2023/09/25 08:06:35;;;;;;;3.67;2.40;;;;;;;;;;5062181;28;20053;-58
2023/09/25 08:09:03;;;;;;;2.55;1.90;;;;;;;;;;5061613;28;20107;-60
2023/09/25 08:11:29;;;;;;;4.60;2.58;;;;;;;;;;5060330;28;20055;-60
2023/09/25 08:13:55;;;;;;;2.65;2.10;;;;;;;;;;5061652;28;20060;-60
2023/09/25 08:16:23;;;;;;;2.70;1.95;;;;;;;;;;5063827;28;20550;-60
2023/09/25 08:18:50;;;;;;;8.63;2.13;;;;;;;;;;5060729;28;20149;-60
2023/09/25 08:21:17;;;;;;;2.40;1.70;;;;;;;;;;5060697;28;20086;-56
2023/09/25 08:23:43;;;;;;;6.30;2.45;;;;;;;;;;5061716;28;20063;-59
2023/09/25 08:26:10;;;;;;;3.63;2.00;;;;;;;;;;5060995;28;20052;-58
2023/09/25 08:28:36;;;;;;;3.78;1.88;;;;;;;;;;5061452;28;20056;-59
2023/09/25 08:31:04;;;;;;;6.07;2.22;;;;;;;;;;5068905;28;20100;-59
2023/09/25 08:33:30;;;;;;;3.10;1.88;;;;;;;;;;5074606;28;20052;-59
2023/09/25 08:35:57;;;;;;;4.05;1.83;;;;;;;;;;5062370;28;20053;-60
2023/09/25 08:38:23;;;;;;;6.90;2.22;;;;;;;;;;5059326;28;20111;-59
2023/09/25 08:40:50;;;;;;;3.85;1.83;;;;;;;;;;5061194;28;20045;-59
2023/09/25 08:43:18;;;;;;;2.90;1.80;;;;;;;;;;5060626;28;20049;-60
2023/09/25 08:45:46;;;;;;;2.90;1.85;;;;;;;;;;5060739;28;20796;-60
2023/09/25 08:48:15;;;;;;;4.32;2.00;;;;;;;;;;5061392;28;20057;-60
2023/09/25 08:50:42;;;;;;;3.22;1.90;;;;;;;;;;5062814;28;20056;-59
2023/09/25 08:53:08;;;;;;;3.45;1.77;;;;;;;;;;5060933;28;20199;-59
2023/09/25 08:55:35;;;;;;;2.20;1.70;;;;;;;;;;5061978;28;20451;-60
2023/09/25 08:58:03;;;;;;;3.38;1.67;;;;;;;;;;5062398;28;20160;-59
2023/09/25 09:00:30;;;;;;;4.57;1.67;;;;;;;;;;5059228;28;20466;-60
2023/09/25 09:02:57;;;;;;;4.10;1.95;;;;;;;;;;5060736;28;20103;-59
2023/09/25 09:05:23;;;;;;;2.97;2.03;;;;;;;;;;5061911;28;20080;-59
2023/09/25 09:07:56;;;;;;;3.13;2.10;;;;;;;;;;5059970;28;20057;-58
2023/09/25 09:10:23;;;;;;;3.90;2.08;;;;;;;;;;5056482;28;20049;-60
2023/09/25 09:12:52;;;;;;;3.95;1.85;;;;;;;;;;5060691;28;20531;-58
2023/09/25 09:15:28;;;;;;;4.65;2.00;;;;;;;;;;5059678;28;20071;-60
2023/09/25 09:17:55;;;;;;;4.30;1.98;;;;;;;;;;5061218;28;20052;-60
2023/09/25 09:20:34;;;;;;;2.67;1.77;;;;;;;;;;5059279;28;20057;-59
2023/09/25 09:23:00;;;;;;;3.72;2.17;;;;;;;;;;5059855;28;20060;-60
2023/09/25 09:25:27;;;;;;;5.38;2.30;;;;;;;;;;5060014;28;20084;-59
2023/09/25 09:27:54;;;;;;;3.20;1.98;;;;;;;;;;5060161;28;20065;-59
2023/09/25 09:30:22;;;;;;;2.92;1.92;;;;;;;;;;5060995;28;20582;-60
2023/09/25 09:32:52;;;;;;;1.90;1.70;;;;;;;;;;5063800;28;20045;-59
2023/09/25 09:35:24;;;;;;;5.15;2.08;;;;;;;;;;5063783;28;20053;-58
2023/09/25 09:37:54;;;;;;;3.00;1.75;;;;;;;;;;5063586;28;20064;-58
2023/09/25 09:40:21;;;;;;;4.20;1.80;;;;;;;;;;5062426;28;20550;-59
2023/09/25 09:42:51;;;;;;;2.42;1.48;;;;;;;;;;5063853;28;20115;-59
2023/09/25 09:45:18;;;;;;;3.63;1.60;;;;;;;;;;5064686;28;20056;-59
2023/09/25 09:47:46;;;;;;;3.22;1.52;;;;;;;;;;5063511;28;20416;-60
2023/09/25 09:50:13;;;;;;;3.17;1.65;;;;;;;;;;5063625;28;20111;-59
2023/09/25 09:52:39;;;;;;;2.83;2.08;;;;;;;;;;5063568;28;20065;-59
2023/09/25 09:55:07;;;;;;;3.22;1.83;;;;;;;;;;5052381;28;20867;-60
2023/09/25 09:57:35;;;;;;;2.70;1.80;;;;;;;;;;5049962;28;20064;-59
2023/09/25 10:00:05;;;;;;;3.92;1.80;;;;;;;;;;5063894;28;20087;-59
2023/09/25 10:02:32;;;;;;;2.22;1.58;;;;;;;;;;5054508;28;20549;-60
2023/09/25 10:04:59;;;;;;;3.28;1.98;;;;;;;;;;5063039;28;20135;-59
2023/09/25 10:07:26;;;;;;;3.72;1.70;;;;;;;;;;5063187;28;20044;-59
2023/09/25 10:10:19;;;;;;;3.10;1.70;;;;;;;;;;5045667;28;20061;-59
2023/09/25 10:12:47;;;;;;;3.08;1.98;;;;;;;;;;5059137;28;20536;-60
2023/09/25 10:15:18;;;;;;;2.05;1.60;;;;;;;;;;5064602;28;20568;-60
2023/09/25 10:17:45;;;;;;;3.50;1.52;;;;;;;;;;5063276;28;20138;-60
2023/09/25 10:20:31;;;;;;;4.38;1.67;;;;;;;;;;5063967;28;20185;-63
2023/09/25 10:22:59;;;;;;;3.13;1.88;;;;;;;;;;5053584;28;20495;-60
2023/09/25 10:25:26;;;;;;;3.92;1.80;;;;;;;;;;5061819;28;20056;-59
2023/09/25 10:27:52;;;;;;;3.83;1.63;;;;;;;;;;5063534;28;20099;-59
2023/09/25 10:30:22;;;;;;;2.30;1.50;;;;;;;;;;5064777;28;20064;-59
2023/09/25 10:32:50;;;;;;;2.65;1.38;;;;;;;;;;5062758;28;20053;-59
2023/09/25 10:35:35;;;;;;;3.95;2.05;;;;;;;;;;5061883;28;20107;-59
2023/09/25 10:38:06;;;;;;;3.22;1.67;;;;;;;;;;5058328;28;20065;-59
2023/09/25 10:40:54;;;;;;;3.67;2.20;;;;;;;;;;5062664;28;20057;-59
2023/09/25 10:43:23;;;;;;;2.17;1.60;;;;;;;;;;5067828;28;20057;-59
2023/09/25 10:45:52;;;;;;;4.82;1.58;;;;;;;;;;5063204;28;20057;-60
2023/09/25 10:48:18;;;;;;;3.47;1.67;;;;;;;;;;5063217;28;20053;-59
2023/09/25 10:50:46;;;;;;;2.53;1.80;;;;;;;;;;5061493;28;20459;-59
2023/09/25 10:53:14;;;;;;;3.65;1.95;;;;;;;;;;5061524;28;20282;-58
2023/09/25 10:55:40;;;;;;;2.78;1.63;;;;;;;;;;5062449;28;20210;-58
2023/09/25 10:58:07;;;;;;;3.00;1.65;;;;;;;;;;5061831;28;20438;-59
2023/09/25 11:00:35;;;;;;;2.65;1.60;;;;;;;;;;5063297;28;20061;-59
2023/09/25 11:03:02;;;;;;;2.35;1.33;;;;;;;;;;5063765;28;20060;-59
2023/09/25 11:05:29;;;;;;;3.85;1.55;;;;;;;;;;5050385;28;20057;-59
2023/09/25 11:07:56;;;;;;;3.10;1.80;;;;;;;;;;5057762;28;20508;-58
2023/09/25 11:10:29;;;;;;;2.78;2.28;;;;;;;;;;5060273;28;20162;-58
2023/09/25 11:12:57;;;;;;;4.00;1.40;;;;;;;;;;5062440;28;20517;-59
2023/09/25 11:15:26;;;;;;;4.03;1.80;;;;;;;;;;5062899;28;20060;-60
2023/09/25 11:17:54;;;;;;;2.50;1.58;;;;;;;;;;5059886;28;20048;-59
2023/09/25 11:20:34;;;;;;;2.40;1.63;;;;;;;;;;5062657;28;20057;-58
2023/09/25 11:23:08;;;;;;;3.67;1.55;;;;;;;;;;5062369;28;20511;-59
2023/09/25 11:25:47;;;;;;;3.28;2.03;;;;;;;;;;5060968;28;20142;-60
2023/09/25 11:28:16;;;;;;;4.82;1.65;;;;;;;;;;5062973;28;20053;-59
2023/09/25 11:30:46;;;;;;;2.10;1.73;;;;;;;;;;5061699;28;20526;-60
2023/09/25 11:33:20;;;;;;;3.22;1.90;;;;;;;;;;5062517;28;20418;-60
2023/09/25 11:35:49;;;;;;;7.97;4.47;;;;;;;;;;5062846;28;20049;-59
2023/09/25 11:38:19;;;;;;;3.25;1.63;;;;;;;;;;5062606;28;20063;-58
2023/09/25 11:40:45;;;;;;;3.15;1.60;;;;;;;;;;5061310;28;20159;-59
2023/09/25 11:43:12;;;;;;;4.97;1.67;;;;;;;;;;5062251;28;20412;-59
2023/09/25 11:45:39;;;;;;;3.13;1.75;;;;;;;;;;5062677;28;20099;-59
2023/09/25 11:48:08;;;;;;;4.07;1.58;;;;;;;;;;5061843;28;20053;-58
2023/09/25 11:50:35;;;;;;;7.72;1.90;;;;;;;;;;5062085;28;20061;-59
2023/09/25 11:53:02;;;;;;;4.85;1.70;;;;;;;;;;5070788;28;20596;-60
2023/09/25 11:55:29;;;;;;;3.70;2.30;;;;;;;;;;5066863;28;20061;-58
2023/09/25 11:57:55;;;;;;;2.00;1.52;;;;;;;;;;5062282;28;20053;-60
2023/09/25 12:00:28;;;;;;;2.75;1.60;;;;;;;;;;5058445;28;20060;-59
2023/09/25 12:02:55;;;;;;;4.10;2.15;;;;;;;;;;5059219;28;20107;-60
2023/09/25 12:05:22;;;;;;;3.20;1.90;;;;;;;;;;5061997;28;20060;-60
2023/09/25 12:07:48;;;;;;;1.63;1.40;;;;;;;;;;5060999;28;20132;-60
2023/09/25 12:10:19;;;;;;;3.35;1.65;;;;;;;;;;5063212;28;20063;-59
2023/09/25 12:12:47;;;;;;;2.85;2.03;;;;;;;;;;5063695;28;20123;-59
2023/09/25 12:15:14;;;;;;;4.85;2.10;;;;;;;;;;5055062;28;20076;-60
2023/09/25 12:17:41;;;;;;;2.38;1.60;;;;;;;;;;5046854;28;20119;-60
2023/09/25 12:20:12;;;;;;;3.20;1.70;;;;;;;;;;5056311;28;20139;-59
2023/09/25 12:22:41;;;;;;;2.42;1.70;;;;;;;;;;5061528;28;20099;-59
2023/09/25 12:25:09;;;;;;;2.92;1.73;;;;;;;;;;5061350;28;20112;-60
2023/09/25 12:27:36;;;;;;;3.22;1.70;;;;;;;;;;5061734;28;20055;-60
2023/09/25 12:30:03;;;;;;;3.25;1.73;;;;;;;;;;5060229;28;20083;-60
2023/09/25 12:32:30;;;;;;;3.03;2.13;;;;;;;;;;5058806;28;20059;-60
2023/09/25 12:34:56;;;;;;;2.33;1.60;;;;;;;;;;5062346;28;20053;-59
2023/09/25 12:37:25;;;;;;;3.38;1.80;;;;;;;;;;5060774;28;20049;-58
2023/09/25 12:39:52;;;;;;;3.88;2.17;;;;;;;;;;5060802;28;20111;-60
2023/09/25 12:42:19;;;;;;;2.50;1.50;;;;;;;;;;5061293;28;20131;-59
2023/09/25 12:44:47;;;;;;;3.00;1.50;;;;;;;;;;5061908;28;20053;-60
2023/09/25 12:47:14;;;;;;;4.85;2.25;;;;;;;;;;5060505;28;20057;-60
2023/09/25 12:49:41;;;;;;;3.38;1.55;;;;;;;;;;5060247;28;20057;-60
2023/09/25 12:52:07;;;;;;;3.50;1.75;;;;;;;;;;5060200;28;20154;-60
2023/09/25 12:54:34;;;;;;;5.63;2.22;;;;;;;;;;5060047;28;20049;-58
2023/09/25 12:57:01;;;;;;;2.50;1.45;;;;;;;;;;5060325;28;20620;-60
2023/09/25 12:59:27;;;;;;;3.35;1.58;;;;;;;;;;5060706;28;20064;-60
2023/09/25 13:01:54;;;;;;;4.75;1.90;;;;;;;;;;5067665;28;20140;-60
2023/09/25 13:04:20;;;;;;;4.18;1.70;;;;;;;;;;5072473;28;20059;-60
2023/09/25 13:06:50;;;;;;;4.68;2.10;;;;;;;;;;5062893;28;20126;-60
2023/09/25 13:09:17;;;;;;;2.28;1.67;;;;;;;;;;5063152;28;20056;-60
2023/09/25 13:11:44;;;;;;;4.30;2.00;;;;;;;;;;5061376;28;20057;-60
2023/09/25 13:14:10;;;;;;;4.95;2.20;;;;;;;;;;5064359;28;20135;-60
2023/09/25 13:16:37;;;;;;;4.40;1.67;;;;;;;;;;5064871;28;20049;-60
2023/09/25 13:19:04;;;;;;;3.35;1.85;;;;;;;;;;5064690;28;20496;-60
2023/09/25 13:21:31;;;;;;;2.28;1.95;;;;;;;;;;5063250;28;20504;-58
2023/09/25 13:23:58;;;;;;;14.70;1.85;;;;;;;;;;5063170;28;20130;-60
2023/09/25 13:26:25;;;;;;;3.15;1.52;;;;;;;;;;5063195;28;20134;-59
2023/09/25 13:28:52;;;;;;;5.88;2.00;;;;;;;;;;5051356;28;20065;-59
2023/09/25 13:31:19;;;;;;;5.88;2.25;;;;;;;;;;5056625;28;20057;-59
2023/09/25 13:33:45;;;;;;;3.00;1.70;;;;;;;;;;5056562;28;20053;-59
2023/09/25 13:36:12;;;;;;;5.13;1.65;;;;;;;;;;5063708;28;20495;-60
2023/09/25 13:38:39;;;;;;;2.83;1.77;;;;;;;;;;5060779;28;20594;-60
2023/09/25 13:41:05;;;;;;;3.42;1.88;;;;;;;;;;5073391;28;20044;-58
2023/09/25 13:43:35;;;;;;;3.75;1.73;;;;;;;;;;5064662;28;20057;-60
2023/09/25 13:46:02;;;;;;;4.53;2.20;;;;;;;;;;5064107;28;20123;-60
2023/09/25 13:48:29;;;;;;;3.38;2.25;;;;;;;;;;5071047;28;20137;-60
2023/09/25 13:50:55;;;;;;;3.15;2.10;;;;;;;;;;5063893;28;20111;-60
2023/09/25 13:53:22;;;;;;;5.70;2.15;;;;;;;;;;5063136;28;20600;-60
2023/09/25 13:55:50;;;;;;;3.33;1.73;;;;;;;;;;5063659;28;20557;-60
2023/09/25 13:58:17;;;;;;;6.15;1.95;;;;;;;;;;5057895;28;20060;-59
2023/09/25 14:00:43;;;;;;;2.55;1.75;;;;;;;;;;5064064;28;20053;-60
2023/09/25 14:03:10;;;;;;;3.70;1.83;;;;;;;;;;5063806;28;20055;-60
2023/09/25 14:05:37;;;;;;;6.10;2.13;;;;;;;;;;5063580;28;20064;-60
2023/09/25 14:08:04;;;;;;;3.50;2.10;;;;;;;;;;5063965;28;20053;-59
2023/09/25 14:10:35;;;;;;;7.88;2.83;;;;;;;;;;5064551;28;20063;-60
2023/09/25 14:13:03;;;;;;;2.92;1.95;;;;;;;;;;5059973;28;20443;-59
2023/09/25 14:15:30;;;;;;;5.30;2.17;;;;;;;;;;5049898;28;20076;-60
2023/09/25 14:17:57;;;;;;;3.40;1.67;;;;;;;;;;5058522;28;20049;-60
2023/09/25 14:20:23;;;;;;;4.57;2.03;;;;;;;;;;5062000;28;20484;-60
2023/09/25 14:22:49;;;;;;;3.80;1.95;;;;;;;;;;5061184;28;20060;-59
2023/09/25 14:25:16;;;;;;;4.13;2.00;;;;;;;;;;5066157;28;20515;-60
2023/09/25 14:27:42;;;;;;;6.47;1.80;;;;;;;;;;5062960;28;20448;-60
2023/09/25 14:30:12;;;;;;;3.55;1.58;;;;;;;;;;5046947;28;20060;-60
2023/09/25 14:32:39;;;;;;;3.20;1.90;;;;;;;;;;5059496;28;20532;-60
2023/09/25 14:35:06;;;;;;;3.75;2.17;;;;;;;;;;5056588;28;20053;-60
2023/09/25 14:37:34;;;;;;;6.93;2.13;;;;;;;;;;5048615;28;20484;-60
2023/09/25 14:40:01;;;;;;;2.92;2.05;;;;;;;;;;5064398;28;20538;-59
2023/09/25 14:42:32;;;;;;;3.30;1.88;;;;;;;;;;5063369;28;20056;-59
2023/09/25 14:45:02;;;;;;;5.82;2.10;;;;;;;;;;5061993;28;20594;-60
2023/09/25 14:47:29;;;;;;;3.13;1.98;;;;;;;;;;5061891;28;20153;-59